createdAt,value
2022-11-14T00:04:01.425Z,1012.7
2022-11-14T00:10:07.887Z,1012.8
2022-11-14T00:14:14.316Z,1012.7
2022-11-14T00:19:20.865Z,1012.7
2022-11-14T00:24:27.343Z,1012.6
2022-11-14T00:29:57.732Z,1012.5
2022-11-14T00:34:41.884Z,1012.4
2022-11-14T00:39:52.197Z,1012.3
2022-11-14T00:44:58.579Z,1012.2
2022-11-14T00:50:01.132Z,1012.2
2022-11-14T00:55:08.981Z,1012.0
2022-11-14T01:00:15.489Z,1012.0
2022-11-14T01:05:22.000Z,1012.0
2022-11-14T01:10:28.449Z,1012.0
2022-11-14T01:16:02.891Z,1011.8
2022-11-14T01:20:41.328Z,1012.0
2022-11-14T01:27:01.289Z,1012.0
2022-11-14T01:30:59.527Z,1011.9
2022-11-14T01:36:02.552Z,1011.8
2022-11-14T01:41:12.833Z,1011.7
2022-11-14T01:46:15.300Z,1011.6
2022-11-14T01:51:26.424Z,1011.6
2022-11-14T02:01:42.419Z,1011.4
2022-11-14T02:06:44.850Z,1011.5
2022-11-14T02:11:51.241Z,1011.4
2022-11-14T02:17:27.306Z,1011.5
2022-11-14T02:22:05.701Z,1011.4
2022-11-14T02:27:11.969Z,1011.3
2022-11-14T02:32:10.873Z,1011.2
2022-11-14T02:37:44.972Z,1011.0
2022-11-14T02:44:30.018Z,1011.1
2022-11-14T02:48:33.369Z,1011.0
2022-11-14T02:54:54.676Z,1010.9
2022-11-14T02:58:26.047Z,1010.8
2022-11-14T03:03:52.583Z,1010.7
2022-11-14T03:09:51.054Z,1010.8
2022-11-14T03:13:51.208Z,1010.6
2022-11-14T03:19:17.514Z,1010.7
2022-11-14T03:23:59.830Z,1010.6
2022-11-14T03:29:06.335Z,1010.6
2022-11-14T03:34:12.591Z,1010.7
2022-11-14T03:39:18.987Z,1010.7
2022-11-14T03:44:49.523Z,1010.7
2022-11-14T03:49:31.843Z,1010.7
2022-11-14T03:54:59.752Z,1010.7
2022-11-14T03:59:46.079Z,1010.6
2022-11-14T04:04:52.607Z,1010.6
2022-11-14T04:10:02.897Z,1010.5
2022-11-14T04:15:32.856Z,1010.6
2022-11-14T04:20:15.308Z,1010.6
2022-11-14T04:25:29.168Z,1010.5
2022-11-14T04:30:34.683Z,1010.5
2022-11-14T04:35:42.229Z,1010.5
2022-11-14T04:40:48.503Z,1010.3
2022-11-14T04:45:50.870Z,1010.4
2022-11-14T04:51:01.398Z,1010.2
2022-11-14T04:56:11.220Z,1010.3
2022-11-14T05:01:13.952Z,1010.2
2022-11-14T05:06:24.145Z,1010.1
2022-11-14T05:11:29.161Z,1010.0
2022-11-14T05:16:34.469Z,1009.9
2022-11-14T05:26:49.912Z,1009.8
2022-11-14T05:32:01.274Z,1009.9
2022-11-14T05:36:53.727Z,1009.8
2022-11-14T05:42:11.724Z,1009.8
2022-11-14T05:47:18.079Z,1009.7
2022-11-14T05:52:28.470Z,1009.8
2022-11-14T05:57:34.923Z,1009.9
2022-11-14T06:02:37.286Z,1009.9
2022-11-14T06:07:43.675Z,1009.9
2022-11-14T06:13:15.724Z,1009.7
2022-11-14T06:17:57.981Z,1009.7
2022-11-14T06:24:18.034Z,1009.7
2022-11-14T06:28:12.293Z,1009.7
2022-11-14T06:33:20.292Z,1009.8
2022-11-14T06:38:30.813Z,1009.9
2022-11-14T06:43:33.011Z,1009.7
2022-11-14T06:48:39.434Z,1009.8
2022-11-14T06:53:47.373Z,1009.8
2022-11-14T06:58:53.896Z,1009.9
2022-11-14T07:04:00.294Z,1009.9
2022-11-14T07:09:06.652Z,1009.9
2022-11-14T07:14:13.035Z,1009.8
2022-11-14T07:19:09.413Z,1009.7
2022-11-14T07:24:25.820Z,1009.6
2022-11-14T07:29:32.215Z,1009.5
2022-11-14T07:34:42.687Z,1009.6
2022-11-14T07:39:48.934Z,1009.7
2022-11-14T07:44:41.452Z,1009.7
2022-11-14T07:49:57.963Z,1009.6
2022-11-14T07:55:04.315Z,1009.6
2022-11-14T08:00:10.797Z,1009.5
2022-11-14T08:05:17.243Z,1009.4
2022-11-14T08:10:22.560Z,1009.5
2022-11-14T08:15:33.948Z,1009.6
2022-11-14T08:20:40.352Z,1009.6
2022-11-14T08:25:44.259Z,1009.6
2022-11-14T08:30:49.629Z,1009.7
2022-11-14T08:35:57.037Z,1009.6
2022-11-14T08:41:07.409Z,1009.7
2022-11-14T08:46:09.836Z,1009.6
2022-11-14T08:51:20.268Z,1009.6
2022-11-14T08:56:22.632Z,1009.5
2022-11-14T09:01:29.021Z,1009.4
2022-11-14T09:06:37.010Z,1009.4
2022-11-14T09:11:47.382Z,1009.3
2022-11-14T09:17:09.822Z,1009.3
2022-11-14T09:27:01.671Z,1009.3
2022-11-14T09:32:10.582Z,1009.3
2022-11-14T09:37:15.973Z,1009.3
2022-11-14T09:42:23.366Z,1009.5
2022-11-14T09:47:29.722Z,1009.4
2022-11-14T09:52:36.108Z,1009.5
2022-11-14T09:57:42.505Z,1009.3
2022-11-14T10:02:38.846Z,1009.2
2022-11-14T10:07:55.259Z,1009.1
2022-11-14T10:13:21.717Z,1009.0
2022-11-14T10:18:08.093Z,1008.9
2022-11-14T10:24:26.622Z,1008.9
2022-11-14T10:28:20.886Z,1008.9
2022-11-14T10:33:27.342Z,1008.9
2022-11-14T10:38:35.285Z,1008.8
2022-11-14T10:43:41.819Z,1008.8
2022-11-14T10:48:48.243Z,1008.8
2022-11-14T10:53:54.599Z,1008.7
2022-11-14T10:59:00.974Z,1008.6
2022-11-14T11:04:33.012Z,1008.2
2022-11-14T11:09:15.397Z,1008.2
2022-11-14T11:14:25.761Z,1008.1
2022-11-14T11:19:32.137Z,1007.9
2022-11-14T11:24:36.107Z,1007.8
2022-11-14T11:29:42.554Z,1007.6
2022-11-14T11:34:52.966Z,1007.5
2022-11-14T11:39:59.377Z,1007.2
2022-11-14T11:45:27.342Z,1007.1
2022-11-14T11:50:09.661Z,1006.9
2022-11-14T11:55:17.656Z,1007.0
2022-11-14T12:00:27.998Z,1006.8
2022-11-14T12:05:34.372Z,1006.7
2022-11-14T12:10:36.770Z,1006.5
2022-11-14T12:15:44.694Z,1006.3
2022-11-14T12:20:51.115Z,1006.4
2022-11-14T12:25:47.608Z,1006.3
2022-11-14T12:31:27.957Z,1007.1
2022-11-14T12:42:03.886Z,1006.8
2022-11-14T12:44:12.138Z,1006.1
2022-11-14T12:51:44.132Z,1006.5
2022-11-14T12:56:53.808Z,1006.2
2022-11-14T13:01:56.715Z,1006.2
2022-11-14T13:07:03.129Z,1006.4
2022-11-14T13:12:08.796Z,1006.6
2022-11-14T13:17:06.190Z,1006.9
2022-11-14T13:22:22.552Z,1006.7
2022-11-14T13:27:52.176Z,1007.3
2022-11-14T13:32:35.335Z,1007.7
2022-11-14T13:38:35.826Z,1008.1
2022-11-14T13:43:43.357Z,1008.1
2022-11-14T13:48:32.929Z,1008.3
2022-11-14T13:53:39.389Z,1008.2
2022-11-14T13:58:35.753Z,1007.8
2022-11-14T14:03:52.260Z,1007.7
2022-11-14T14:08:58.621Z,1007.5
2022-11-14T14:14:05.013Z,1006.0
2022-11-14T14:19:11.443Z,1006.1
2022-11-14T14:24:07.790Z,1006.0
2022-11-14T14:29:24.182Z,1006.0
2022-11-14T14:34:30.612Z,1006.1
2022-11-14T14:39:26.962Z,1006.1
2022-11-14T14:44:44.938Z,1006.3
2022-11-14T14:49:51.332Z,1006.2
2022-11-14T14:54:57.693Z,1006.1
2022-11-14T14:59:54.038Z,1006.1
2022-11-14T15:05:10.474Z,1006.1
2022-11-14T15:10:16.827Z,1006.3
2022-11-14T15:15:23.310Z,1006.2
2022-11-14T15:20:29.748Z,1006.1
2022-11-14T15:25:37.683Z,1006.0
2022-11-14T15:30:44.086Z,1005.8
2022-11-14T15:35:50.542Z,1005.8
2022-11-14T15:40:57.017Z,1005.8
2022-11-14T15:46:31.437Z,1006.0
2022-11-14T15:51:09.883Z,1005.9
2022-11-14T15:56:41.831Z,1006.0
2022-11-14T16:01:24.376Z,1005.9
2022-11-14T16:06:59.062Z,1005.9
2022-11-14T16:16:48.108Z,1005.8
2022-11-14T16:21:51.525Z,1005.8
2022-11-14T16:26:58.470Z,1005.8
2022-11-14T16:32:03.389Z,1005.7
2022-11-14T16:37:14.795Z,1005.8
2022-11-14T16:42:18.765Z,1005.7
2022-11-14T16:47:25.263Z,1005.6
2022-11-14T16:52:21.643Z,1005.7
2022-11-14T16:57:38.173Z,1005.6
2022-11-14T17:03:10.143Z,1005.5
2022-11-14T17:07:52.468Z,1005.4
2022-11-14T17:12:58.944Z,1005.5
2022-11-14T17:18:05.309Z,1005.5
2022-11-14T17:23:13.294Z,1005.5
2022-11-14T17:28:23.760Z,1005.5
2022-11-14T17:33:30.482Z,1005.4
2022-11-14T17:38:38.060Z,1005.3
2022-11-14T17:43:40.881Z,1005.3
2022-11-14T17:53:53.860Z,1005.4
2022-11-14T17:59:05.262Z,1005.4
2022-11-14T18:04:07.600Z,1005.3
2022-11-14T18:09:14.674Z,1005.3
2022-11-14T18:15:18.433Z,1005.3
2022-11-14T18:20:04.750Z,1005.3
2022-11-14T18:25:11.196Z,1005.3
2022-11-14T18:30:40.880Z,1005.2
2022-11-14T18:35:28.568Z,1005.3
2022-11-14T18:40:35.950Z,1005.1
2022-11-14T18:45:38.334Z,1005.1
2022-11-14T18:50:44.763Z,1005.1
2022-11-14T18:56:15.299Z,1005.2
2022-11-14T19:01:01.761Z,1005.1
2022-11-14T19:07:09.189Z,1005.2
2022-11-14T19:12:16.601Z,1005.2
2022-11-14T19:18:07.086Z,1005.1
2022-11-14T19:23:13.529Z,1005.1
2022-11-14T19:27:25.842Z,1005.1
2022-11-14T19:32:56.295Z,1005.1
2022-11-14T19:37:48.783Z,1005.1
2022-11-14T19:43:18.162Z,1005.1
2022-11-14T19:48:05.517Z,1005.1
2022-11-14T19:53:11.031Z,1005.0
2022-11-14T19:58:38.124Z,1005.1
2022-11-14T20:03:14.456Z,1005.2
2022-11-14T20:08:20.853Z,1005.1
2022-11-14T20:13:37.226Z,1005.2
2022-11-14T20:19:07.661Z,1005.0
2022-11-14T20:23:40.005Z,1004.9
2022-11-14T20:28:56.478Z,1004.9
2022-11-14T20:34:02.852Z,1005.1
2022-11-14T20:39:09.262Z,1005.1
2022-11-14T20:44:19.624Z,1005.1
2022-11-14T20:49:11.964Z,1005.1
2022-11-14T20:54:29.978Z,1005.0
2022-11-14T20:59:50.461Z,1005.1
2022-11-14T21:05:10.870Z,1005.2
2022-11-14T21:09:53.227Z,1005.1
2022-11-14T21:14:45.560Z,1005.1
2022-11-14T21:20:05.970Z,1005.1
2022-11-14T21:25:12.370Z,1005.1
2022-11-14T21:30:14.708Z,1005.3
2022-11-14T21:35:11.059Z,1005.2
2022-11-14T21:53:57.262Z,1005.1
2022-11-14T21:58:58.976Z,1005.0
2022-11-14T22:05:24.970Z,1005.1
2022-11-14T22:10:21.345Z,1005.1
2022-11-14T22:16:40.829Z,1005.1
2022-11-14T22:20:35.057Z,1005.0
2022-11-14T22:25:45.465Z,1005.0
2022-11-14T22:31:07.922Z,1005.0
2022-11-14T22:35:54.368Z,1004.9
2022-11-14T22:41:00.804Z,1004.9
2022-11-14T22:46:07.175Z,1005.0
2022-11-14T22:51:13.557Z,1004.9
2022-11-14T22:56:09.937Z,1004.9
2022-11-14T23:01:26.422Z,1004.8
2022-11-14T23:06:52.883Z,1004.8
2022-11-14T23:11:29.150Z,1004.9
2022-11-14T23:16:45.178Z,1004.9
2022-11-14T23:21:55.732Z,1004.9
2022-11-14T23:26:52.240Z,1004.8
2022-11-14T23:32:08.619Z,1004.9
2022-11-14T23:37:15.009Z,1004.8
2022-11-14T23:42:55.517Z,1004.8
2022-11-14T23:48:02.987Z,1004.8
2022-11-14T23:53:09.388Z,1004.8
2022-11-14T23:58:19.806Z,1004.8
